sensor_id;sensor_type;location;lat;lon;timestamp;P1;durP1;ratioP1;P2;durP2;ratioP2
20721;SDS011;10522;52.198;9.890;2023-05-08T00:01:10;10.80;;;9.60;;
20721;SDS011;10522;52.198;9.890;2023-05-08T00:03:36;12.87;;;9.60;;
20721;SDS011;10522;52.198;9.890;2023-05-08T00:06:04;10.43;;;8.77;;
20721;SDS011;10522;52.198;9.890;2023-05-08T00:08:30;11.37;;;9.17;;
20721;SDS011;10522;52.198;9.890;2023-05-08T00:10:57;11.87;;;9.43;;
20721;SDS011;10522;52.198;9.890;2023-05-08T00:13:22;10.97;;;8.90;;
20721;SDS011;10522;52.198;9.890;2023-05-08T00:15:48;10.53;;;8.80;;
20721;SDS011;10522;52.198;9.890;2023-05-08T00:18:14;13.30;;;9.17;;
20721;SDS011;10522;52.198;9.890;2023-05-08T00:20:40;12.20;;;9.30;;
20721;SDS011;10522;52.198;9.890;2023-05-08T00:23:06;9.33;;;8.43;;
20721;SDS011;10522;52.198;9.890;2023-05-08T00:25:31;11.27;;;8.80;;
20721;SDS011;10522;52.198;9.890;2023-05-08T00:27:57;9.93;;;8.33;;
20721;SDS011;10522;52.198;9.890;2023-05-08T00:30:24;11.67;;;8.40;;
20721;SDS011;10522;52.198;9.890;2023-05-08T00:32:49;10.80;;;8.10;;
20721;SDS011;10522;52.198;9.890;2023-05-08T00:35:15;12.57;;;9.03;;
20721;SDS011;10522;52.198;9.890;2023-05-08T00:37:41;10.93;;;8.57;;
20721;SDS011;10522;52.198;9.890;2023-05-08T00:40:08;10.73;;;8.57;;
20721;SDS011;10522;52.198;9.890;2023-05-08T00:42:34;10.27;;;8.40;;
20721;SDS011;10522;52.198;9.890;2023-05-08T00:45:00;9.60;;;8.30;;
20721;SDS011;10522;52.198;9.890;2023-05-08T00:47:25;9.53;;;8.27;;
20721;SDS011;10522;52.198;9.890;2023-05-08T00:49:51;10.07;;;7.80;;
20721;SDS011;10522;52.198;9.890;2023-05-08T00:52:17;11.30;;;9.00;;
20721;SDS011;10522;52.198;9.890;2023-05-08T00:54:43;9.13;;;8.07;;
20721;SDS011;10522;52.198;9.890;2023-05-08T00:57:10;9.37;;;7.97;;
20721;SDS011;10522;52.198;9.890;2023-05-08T00:59:36;12.53;;;8.60;;
20721;SDS011;10522;52.198;9.890;2023-05-08T01:02:05;11.03;;;8.13;;
20721;SDS011;10522;52.198;9.890;2023-05-08T01:04:32;10.50;;;7.53;;
20721;SDS011;10522;52.198;9.890;2023-05-08T01:07:00;11.07;;;9.07;;
20721;SDS011;10522;52.198;9.890;2023-05-08T01:09:25;8.63;;;7.73;;
20721;SDS011;10522;52.198;9.890;2023-05-08T01:11:57;10.30;;;8.10;;
20721;SDS011;10522;52.198;9.890;2023-05-08T01:17:28;9.50;;;7.80;;
20721;SDS011;10522;52.198;9.890;2023-05-08T01:20:21;10.90;;;8.57;;
20721;SDS011;10522;52.198;9.890;2023-05-08T01:34:23;9.20;;;7.27;;
20721;SDS011;10522;52.198;9.890;2023-05-08T01:42:23;10.80;;;7.93;;
20721;SDS011;10522;52.198;9.890;2023-05-08T01:44:59;12.60;;;7.77;;
20721;SDS011;10522;52.198;9.890;2023-05-08T01:47:31;11.37;;;8.43;;
20721;SDS011;10522;52.198;9.890;2023-05-08T01:50:05;10.63;;;8.33;;
20721;SDS011;10522;52.198;9.890;2023-05-08T01:55:30;11.03;;;8.00;;
20721;SDS011;10522;52.198;9.890;2023-05-08T01:57:58;10.23;;;7.67;;
20721;SDS011;10522;52.198;9.890;2023-05-08T02:00:28;10.20;;;8.20;;
20721;SDS011;10522;52.198;9.890;2023-05-08T02:02:54;9.73;;;8.00;;
20721;SDS011;10522;52.198;9.890;2023-05-08T02:05:21;11.63;;;8.03;;
20721;SDS011;10522;52.198;9.890;2023-05-08T02:07:48;10.57;;;7.73;;
20721;SDS011;10522;52.198;9.890;2023-05-08T02:10:15;9.37;;;7.67;;
20721;SDS011;10522;52.198;9.890;2023-05-08T02:12:42;12.13;;;9.00;;
20721;SDS011;10522;52.198;9.890;2023-05-08T02:15:09;10.10;;;7.83;;
20721;SDS011;10522;52.198;9.890;2023-05-08T02:17:37;11.30;;;8.33;;
20721;SDS011;10522;52.198;9.890;2023-05-08T02:20:05;11.50;;;7.80;;
20721;SDS011;10522;52.198;9.890;2023-05-08T02:22:31;10.27;;;8.33;;
20721;SDS011;10522;52.198;9.890;2023-05-08T02:24:58;10.37;;;8.27;;
20721;SDS011;10522;52.198;9.890;2023-05-08T02:27:25;10.30;;;7.10;;
20721;SDS011;10522;52.198;9.890;2023-05-08T02:29:52;11.20;;;7.97;;
20721;SDS011;10522;52.198;9.890;2023-05-08T02:32:19;10.23;;;8.20;;
20721;SDS011;10522;52.198;9.890;2023-05-08T02:34:46;9.90;;;8.13;;
20721;SDS011;10522;52.198;9.890;2023-05-08T02:37:13;9.20;;;7.87;;
20721;SDS011;10522;52.198;9.890;2023-05-08T02:39:41;10.10;;;7.93;;
20721;SDS011;10522;52.198;9.890;2023-05-08T02:42:09;10.40;;;7.60;;
20721;SDS011;10522;52.198;9.890;2023-05-08T02:44:35;11.70;;;8.83;;
20721;SDS011;10522;52.198;9.890;2023-05-08T02:49:39;10.23;;;8.60;;
20721;SDS011;10522;52.198;9.890;2023-05-08T02:52:13;10.00;;;7.93;;
20721;SDS011;10522;52.198;9.890;2023-05-08T02:57:19;9.17;;;7.83;;
20721;SDS011;10522;52.198;9.890;2023-05-08T02:59:59;10.07;;;8.60;;
20721;SDS011;10522;52.198;9.890;2023-05-08T03:02:39;9.80;;;7.63;;
20721;SDS011;10522;52.198;9.890;2023-05-08T03:07:44;10.43;;;8.33;;
20721;SDS011;10522;52.198;9.890;2023-05-08T03:10:14;11.93;;;8.70;;
20721;SDS011;10522;52.198;9.890;2023-05-08T03:12:44;12.97;;;8.63;;
20721;SDS011;10522;52.198;9.890;2023-05-08T03:15:25;9.70;;;7.87;;
20721;SDS011;10522;52.198;9.890;2023-05-08T03:17:57;12.13;;;8.67;;
20721;SDS011;10522;52.198;9.890;2023-05-08T03:20:27;16.20;;;8.73;;
20721;SDS011;10522;52.198;9.890;2023-05-08T03:22:57;10.53;;;8.77;;
20721;SDS011;10522;52.198;9.890;2023-05-08T03:25:24;10.67;;;8.23;;
20721;SDS011;10522;52.198;9.890;2023-05-08T03:27:52;10.90;;;8.20;;
20721;SDS011;10522;52.198;9.890;2023-05-08T03:30:19;13.17;;;8.70;;
20721;SDS011;10522;52.198;9.890;2023-05-08T03:32:45;12.57;;;8.90;;
20721;SDS011;10522;52.198;9.890;2023-05-08T03:35:12;11.30;;;8.97;;
20721;SDS011;10522;52.198;9.890;2023-05-08T03:37:39;13.03;;;8.80;;
20721;SDS011;10522;52.198;9.890;2023-05-08T03:40:06;11.73;;;9.27;;
20721;SDS011;10522;52.198;9.890;2023-05-08T03:42:33;12.10;;;9.10;;
20721;SDS011;10522;52.198;9.890;2023-05-08T03:44:59;11.07;;;8.50;;
20721;SDS011;10522;52.198;9.890;2023-05-08T03:47:27;11.03;;;8.73;;
20721;SDS011;10522;52.198;9.890;2023-05-08T03:49:53;14.63;;;9.57;;
20721;SDS011;10522;52.198;9.890;2023-05-08T03:52:19;11.17;;;8.57;;
20721;SDS011;10522;52.198;9.890;2023-05-08T03:54:45;10.90;;;9.13;;
20721;SDS011;10522;52.198;9.890;2023-05-08T03:57:11;12.70;;;8.83;;
20721;SDS011;10522;52.198;9.890;2023-05-08T04:02:28;11.13;;;8.70;;
20721;SDS011;10522;52.198;9.890;2023-05-08T04:05:13;12.70;;;9.57;;
20721;SDS011;10522;52.198;9.890;2023-05-08T04:07:46;10.03;;;8.33;;
20721;SDS011;10522;52.198;9.890;2023-05-08T04:10:30;10.33;;;8.20;;
20721;SDS011;10522;52.198;9.890;2023-05-08T04:13:02;10.17;;;7.77;;
20721;SDS011;10522;52.198;9.890;2023-05-08T04:15:38;12.83;;;9.03;;
20721;SDS011;10522;52.198;9.890;2023-05-08T04:18:17;14.60;;;9.03;;
20721;SDS011;10522;52.198;9.890;2023-05-08T04:20:47;12.27;;;9.20;;
20721;SDS011;10522;52.198;9.890;2023-05-08T04:23:16;11.60;;;8.43;;
20721;SDS011;10522;52.198;9.890;2023-05-08T04:25:43;12.43;;;8.90;;
20721;SDS011;10522;52.198;9.890;2023-05-08T04:28:11;10.40;;;8.30;;
20721;SDS011;10522;52.198;9.890;2023-05-08T04:30:38;13.13;;;9.50;;
20721;SDS011;10522;52.198;9.890;2023-05-08T04:33:04;11.53;;;8.40;;
20721;SDS011;10522;52.198;9.890;2023-05-08T04:35:32;10.37;;;8.53;;
20721;SDS011;10522;52.198;9.890;2023-05-08T04:37:58;11.10;;;8.60;;
20721;SDS011;10522;52.198;9.890;2023-05-08T04:40:24;9.57;;;8.27;;
20721;SDS011;10522;52.198;9.890;2023-05-08T04:42:49;10.73;;;8.53;;
20721;SDS011;10522;52.198;9.890;2023-05-08T04:45:15;10.17;;;8.07;;
20721;SDS011;10522;52.198;9.890;2023-05-08T04:47:41;10.70;;;8.47;;
20721;SDS011;10522;52.198;9.890;2023-05-08T04:50:06;11.97;;;8.67;;
20721;SDS011;10522;52.198;9.890;2023-05-08T04:52:32;10.80;;;8.30;;
20721;SDS011;10522;52.198;9.890;2023-05-08T04:54:58;11.23;;;8.80;;
20721;SDS011;10522;52.198;9.890;2023-05-08T04:57:24;12.30;;;9.00;;
20721;SDS011;10522;52.198;9.890;2023-05-08T04:59:49;12.13;;;9.03;;
20721;SDS011;10522;52.198;9.890;2023-05-08T05:02:15;11.43;;;8.80;;
20721;SDS011;10522;52.198;9.890;2023-05-08T05:04:40;11.97;;;8.70;;
20721;SDS011;10522;52.198;9.890;2023-05-08T05:07:06;12.53;;;9.67;;
20721;SDS011;10522;52.198;9.890;2023-05-08T05:09:31;13.27;;;8.97;;
20721;SDS011;10522;52.198;9.890;2023-05-08T05:12:04;11.97;;;9.80;;
20721;SDS011;10522;52.198;9.890;2023-05-08T05:14:30;10.40;;;8.43;;
20721;SDS011;10522;52.198;9.890;2023-05-08T05:16:56;12.20;;;8.80;;
20721;SDS011;10522;52.198;9.890;2023-05-08T05:19:21;11.80;;;9.27;;
20721;SDS011;10522;52.198;9.890;2023-05-08T05:21:47;13.60;;;8.70;;
20721;SDS011;10522;52.198;9.890;2023-05-08T05:24:13;11.57;;;8.40;;
20721;SDS011;10522;52.198;9.890;2023-05-08T05:26:38;12.13;;;8.90;;
20721;SDS011;10522;52.198;9.890;2023-05-08T05:29:05;10.83;;;8.23;;
20721;SDS011;10522;52.198;9.890;2023-05-08T05:31:30;11.33;;;8.73;;
20721;SDS011;10522;52.198;9.890;2023-05-08T05:33:56;13.93;;;9.67;;
20721;SDS011;10522;52.198;9.890;2023-05-08T05:36:21;11.77;;;9.03;;
20721;SDS011;10522;52.198;9.890;2023-05-08T05:38:47;10.60;;;8.87;;
20721;SDS011;10522;52.198;9.890;2023-05-08T05:41:13;11.50;;;9.30;;
20721;SDS011;10522;52.198;9.890;2023-05-08T05:43:39;10.40;;;8.67;;
20721;SDS011;10522;52.198;9.890;2023-05-08T05:46:05;12.57;;;8.93;;
20721;SDS011;10522;52.198;9.890;2023-05-08T05:48:31;11.60;;;8.93;;
20721;SDS011;10522;52.198;9.890;2023-05-08T05:50:57;15.57;;;10.10;;
20721;SDS011;10522;52.198;9.890;2023-05-08T05:53:23;14.20;;;9.07;;
20721;SDS011;10522;52.198;9.890;2023-05-08T05:55:48;16.93;;;10.87;;
20721;SDS011;10522;52.198;9.890;2023-05-08T05:58:14;13.40;;;9.63;;
20721;SDS011;10522;52.198;9.890;2023-05-08T06:00:40;14.53;;;10.60;;
20721;SDS011;10522;52.198;9.890;2023-05-08T06:03:09;12.30;;;9.37;;
20721;SDS011;10522;52.198;9.890;2023-05-08T06:05:36;11.00;;;8.90;;
20721;SDS011;10522;52.198;9.890;2023-05-08T06:08:02;12.70;;;9.37;;
20721;SDS011;10522;52.198;9.890;2023-05-08T06:10:27;12.40;;;9.43;;
20721;SDS011;10522;52.198;9.890;2023-05-08T06:12:53;12.43;;;9.87;;
20721;SDS011;10522;52.198;9.890;2023-05-08T06:15:19;11.37;;;9.77;;
20721;SDS011;10522;52.198;9.890;2023-05-08T06:17:45;13.37;;;10.17;;
20721;SDS011;10522;52.198;9.890;2023-05-08T06:20:11;11.60;;;8.97;;
20721;SDS011;10522;52.198;9.890;2023-05-08T06:22:37;13.30;;;10.23;;
20721;SDS011;10522;52.198;9.890;2023-05-08T06:25:04;17.27;;;8.97;;
20721;SDS011;10522;52.198;9.890;2023-05-08T06:27:31;11.97;;;9.27;;
20721;SDS011;10522;52.198;9.890;2023-05-08T06:29:58;13.00;;;9.80;;
20721;SDS011;10522;52.198;9.890;2023-05-08T06:32:24;10.53;;;9.00;;
20721;SDS011;10522;52.198;9.890;2023-05-08T06:34:50;12.30;;;9.53;;
20721;SDS011;10522;52.198;9.890;2023-05-08T06:37:15;13.53;;;9.47;;
20721;SDS011;10522;52.198;9.890;2023-05-08T06:39:41;13.30;;;9.57;;
20721;SDS011;10522;52.198;9.890;2023-05-08T06:42:07;13.03;;;9.00;;
20721;SDS011;10522;52.198;9.890;2023-05-08T06:44:32;15.40;;;10.00;;
20721;SDS011;10522;52.198;9.890;2023-05-08T06:46:58;11.33;;;9.13;;
20721;SDS011;10522;52.198;9.890;2023-05-08T06:49:24;12.10;;;9.53;;
20721;SDS011;10522;52.198;9.890;2023-05-08T06:51:49;11.50;;;9.30;;
20721;SDS011;10522;52.198;9.890;2023-05-08T06:54:15;13.53;;;9.40;;
20721;SDS011;10522;52.198;9.890;2023-05-08T06:56:41;13.00;;;9.23;;
20721;SDS011;10522;52.198;9.890;2023-05-08T06:59:07;13.53;;;9.47;;
20721;SDS011;10522;52.198;9.890;2023-05-08T07:01:32;10.50;;;8.53;;
20721;SDS011;10522;52.198;9.890;2023-05-08T07:03:58;14.83;;;8.77;;
20721;SDS011;10522;52.198;9.890;2023-05-08T07:06:24;12.37;;;9.27;;
20721;SDS011;10522;52.198;9.890;2023-05-08T07:08:50;12.37;;;9.23;;
20721;SDS011;10522;52.198;9.890;2023-05-08T07:11:15;14.90;;;9.70;;
20721;SDS011;10522;52.198;9.890;2023-05-08T07:13:41;12.17;;;8.97;;
20721;SDS011;10522;52.198;9.890;2023-05-08T07:16:12;10.67;;;8.77;;
20721;SDS011;10522;52.198;9.890;2023-05-08T07:18:38;11.00;;;9.23;;
20721;SDS011;10522;52.198;9.890;2023-05-08T07:21:04;10.50;;;8.60;;
20721;SDS011;10522;52.198;9.890;2023-05-08T07:23:29;12.07;;;9.30;;
20721;SDS011;10522;52.198;9.890;2023-05-08T07:25:55;12.10;;;9.10;;
20721;SDS011;10522;52.198;9.890;2023-05-08T07:28:21;10.00;;;8.07;;
20721;SDS011;10522;52.198;9.890;2023-05-08T07:30:47;10.90;;;8.27;;
20721;SDS011;10522;52.198;9.890;2023-05-08T07:33:13;12.33;;;8.63;;
20721;SDS011;10522;52.198;9.890;2023-05-08T07:35:39;10.67;;;8.87;;
20721;SDS011;10522;52.198;9.890;2023-05-08T07:38:05;11.87;;;9.40;;
20721;SDS011;10522;52.198;9.890;2023-05-08T07:40:31;15.20;;;9.17;;
20721;SDS011;10522;52.198;9.890;2023-05-08T07:42:56;11.00;;;8.93;;
20721;SDS011;10522;52.198;9.890;2023-05-08T07:45:22;13.97;;;9.57;;
20721;SDS011;10522;52.198;9.890;2023-05-08T07:47:49;12.20;;;9.53;;
20721;SDS011;10522;52.198;9.890;2023-05-08T07:50:14;12.63;;;9.93;;
20721;SDS011;10522;52.198;9.890;2023-05-08T07:52:40;10.50;;;8.77;;
20721;SDS011;10522;52.198;9.890;2023-05-08T07:55:06;12.83;;;9.30;;
20721;SDS011;10522;52.198;9.890;2023-05-08T07:57:38;11.27;;;9.40;;
20721;SDS011;10522;52.198;9.890;2023-05-08T08:00:05;12.90;;;9.60;;
20721;SDS011;10522;52.198;9.890;2023-05-08T08:02:35;13.00;;;9.53;;
20721;SDS011;10522;52.198;9.890;2023-05-08T08:05:01;13.87;;;9.27;;
20721;SDS011;10522;52.198;9.890;2023-05-08T08:07:27;10.40;;;9.17;;
20721;SDS011;10522;52.198;9.890;2023-05-08T08:09:53;11.93;;;9.67;;
20721;SDS011;10522;52.198;9.890;2023-05-08T08:12:19;12.40;;;9.50;;
20721;SDS011;10522;52.198;9.890;2023-05-08T08:14:45;11.13;;;8.50;;
20721;SDS011;10522;52.198;9.890;2023-05-08T08:17:11;12.40;;;9.27;;
20721;SDS011;10522;52.198;9.890;2023-05-08T08:19:37;11.60;;;9.37;;
20721;SDS011;10522;52.198;9.890;2023-05-08T08:22:03;10.33;;;8.93;;
20721;SDS011;10522;52.198;9.890;2023-05-08T08:24:28;14.03;;;10.20;;
20721;SDS011;10522;52.198;9.890;2023-05-08T08:26:54;10.47;;;9.30;;
20721;SDS011;10522;52.198;9.890;2023-05-08T08:29:20;11.33;;;9.03;;
20721;SDS011;10522;52.198;9.890;2023-05-08T08:31:45;12.90;;;10.27;;
20721;SDS011;10522;52.198;9.890;2023-05-08T08:34:11;12.10;;;9.83;;
20721;SDS011;10522;52.198;9.890;2023-05-08T08:36:37;10.60;;;9.50;;
20721;SDS011;10522;52.198;9.890;2023-05-08T08:39:03;10.77;;;9.63;;
20721;SDS011;10522;52.198;9.890;2023-05-08T08:41:29;12.13;;;8.87;;
20721;SDS011;10522;52.198;9.890;2023-05-08T08:43:55;15.27;;;10.37;;
20721;SDS011;10522;52.198;9.890;2023-05-08T08:46:24;10.80;;;9.63;;
20721;SDS011;10522;52.198;9.890;2023-05-08T08:48:52;15.23;;;9.77;;
20721;SDS011;10522;52.198;9.890;2023-05-08T08:51:35;11.40;;;9.70;;
20721;SDS011;10522;52.198;9.890;2023-05-08T08:54:13;12.37;;;9.90;;
20721;SDS011;10522;52.198;9.890;2023-05-08T08:56:43;10.97;;;9.37;;
20721;SDS011;10522;52.198;9.890;2023-05-08T08:59:11;11.10;;;9.27;;
20721;SDS011;10522;52.198;9.890;2023-05-08T09:01:38;11.57;;;9.63;;
20721;SDS011;10522;52.198;9.890;2023-05-08T09:04:05;11.50;;;9.23;;
20721;SDS011;10522;52.198;9.890;2023-05-08T09:06:34;10.50;;;8.93;;
20721;SDS011;10522;52.198;9.890;2023-05-08T09:09:01;14.40;;;9.90;;
20721;SDS011;10522;52.198;9.890;2023-05-08T09:11:28;10.60;;;8.63;;
20721;SDS011;10522;52.198;9.890;2023-05-08T09:13:54;12.80;;;9.53;;
20721;SDS011;10522;52.198;9.890;2023-05-08T09:16:20;14.03;;;9.40;;
20721;SDS011;10522;52.198;9.890;2023-05-08T09:18:46;10.20;;;8.57;;
20721;SDS011;10522;52.198;9.890;2023-05-08T09:21:12;12.07;;;9.60;;
20721;SDS011;10522;52.198;9.890;2023-05-08T09:23:54;10.93;;;9.07;;
20721;SDS011;10522;52.198;9.890;2023-05-08T09:26:27;11.87;;;10.00;;
20721;SDS011;10522;52.198;9.890;2023-05-08T09:29:07;12.57;;;9.27;;
20721;SDS011;10522;52.198;9.890;2023-05-08T09:31:39;9.30;;;8.40;;
20721;SDS011;10522;52.198;9.890;2023-05-08T09:34:10;9.40;;;7.90;;
20721;SDS011;10522;52.198;9.890;2023-05-08T09:36:46;11.67;;;9.07;;
20721;SDS011;10522;52.198;9.890;2023-05-08T09:39:12;9.27;;;8.27;;
20721;SDS011;10522;52.198;9.890;2023-05-08T09:41:59;9.57;;;8.60;;
20721;SDS011;10522;52.198;9.890;2023-05-08T09:44:27;9.10;;;7.63;;
20721;SDS011;10522;52.198;9.890;2023-05-08T09:47:09;10.97;;;7.70;;
20721;SDS011;10522;52.198;9.890;2023-05-08T09:49:36;9.40;;;8.40;;
20721;SDS011;10522;52.198;9.890;2023-05-08T09:52:04;10.27;;;7.90;;
20721;SDS011;10522;52.198;9.890;2023-05-08T09:54:31;9.47;;;7.63;;
20721;SDS011;10522;52.198;9.890;2023-05-08T09:56:56;10.83;;;7.57;;
20721;SDS011;10522;52.198;9.890;2023-05-08T09:59:23;11.67;;;8.03;;
20721;SDS011;10522;52.198;9.890;2023-05-08T10:01:50;13.30;;;8.00;;
20721;SDS011;10522;52.198;9.890;2023-05-08T10:04:17;8.83;;;7.43;;
20721;SDS011;10522;52.198;9.890;2023-05-08T10:06:56;9.17;;;7.13;;
20721;SDS011;10522;52.198;9.890;2023-05-08T10:09:22;8.43;;;7.53;;
20721;SDS011;10522;52.198;9.890;2023-05-08T10:11:49;8.73;;;7.30;;
20721;SDS011;10522;52.198;9.890;2023-05-08T10:14:16;11.10;;;7.53;;
20721;SDS011;10522;52.198;9.890;2023-05-08T10:16:43;8.77;;;7.87;;
20721;SDS011;10522;52.198;9.890;2023-05-08T10:19:17;9.73;;;7.40;;
20721;SDS011;10522;52.198;9.890;2023-05-08T10:21:53;8.60;;;7.60;;
20721;SDS011;10522;52.198;9.890;2023-05-08T10:24:22;11.63;;;8.10;;
20721;SDS011;10522;52.198;9.890;2023-05-08T10:26:56;8.87;;;7.03;;
20721;SDS011;10522;52.198;9.890;2023-05-08T10:29:45;9.17;;;7.80;;
20721;SDS011;10522;52.198;9.890;2023-05-08T10:32:18;9.20;;;8.30;;
20721;SDS011;10522;52.198;9.890;2023-05-08T10:34:45;9.90;;;8.20;;
20721;SDS011;10522;52.198;9.890;2023-05-08T10:37:16;13.30;;;8.07;;
20721;SDS011;10522;52.198;9.890;2023-05-08T10:39:43;10.50;;;9.40;;
20721;SDS011;10522;52.198;9.890;2023-05-08T10:42:13;12.43;;;9.37;;
20721;SDS011;10522;52.198;9.890;2023-05-08T10:44:39;14.43;;;9.70;;
20721;SDS011;10522;52.198;9.890;2023-05-08T10:47:26;10.30;;;8.47;;
20721;SDS011;10522;52.198;9.890;2023-05-08T10:55:31;11.33;;;10.13;;
20721;SDS011;10522;52.198;9.890;2023-05-08T10:58:14;14.90;;;10.03;;
20721;SDS011;10522;52.198;9.890;2023-05-08T11:03:24;11.33;;;9.90;;
20721;SDS011;10522;52.198;9.890;2023-05-08T11:05:51;10.53;;;9.30;;
20721;SDS011;10522;52.198;9.890;2023-05-08T11:08:22;12.20;;;9.90;;
20721;SDS011;10522;52.198;9.890;2023-05-08T11:10:51;10.90;;;9.80;;
20721;SDS011;10522;52.198;9.890;2023-05-08T11:13:49;11.17;;;9.67;;
20721;SDS011;10522;52.198;9.890;2023-05-08T11:19:27;11.77;;;9.40;;
20721;SDS011;10522;52.198;9.890;2023-05-08T11:24:39;19.47;;;11.10;;
20721;SDS011;10522;52.198;9.890;2023-05-08T11:27:10;13.13;;;9.87;;
20721;SDS011;10522;52.198;9.890;2023-05-08T11:29:36;11.40;;;9.80;;
20721;SDS011;10522;52.198;9.890;2023-05-08T11:32:03;11.53;;;9.60;;
20721;SDS011;10522;52.198;9.890;2023-05-08T11:37:17;12.90;;;10.43;;
20721;SDS011;10522;52.198;9.890;2023-05-08T11:39:48;13.93;;;11.23;;
20721;SDS011;10522;52.198;9.890;2023-05-08T11:45:12;11.60;;;8.63;;
20721;SDS011;10522;52.198;9.890;2023-05-08T11:47:41;13.50;;;10.30;;
20721;SDS011;10522;52.198;9.890;2023-05-08T11:50:09;12.17;;;10.40;;
20721;SDS011;10522;52.198;9.890;2023-05-08T11:52:36;10.63;;;9.53;;
20721;SDS011;10522;52.198;9.890;2023-05-08T11:55:07;11.63;;;10.47;;
20721;SDS011;10522;52.198;9.890;2023-05-08T11:57:34;13.07;;;9.83;;
20721;SDS011;10522;52.198;9.890;2023-05-08T12:00:09;12.13;;;10.57;;
20721;SDS011;10522;52.198;9.890;2023-05-08T12:02:36;12.50;;;10.10;;
20721;SDS011;10522;52.198;9.890;2023-05-08T12:05:04;11.03;;;9.07;;
20721;SDS011;10522;52.198;9.890;2023-05-08T12:07:30;11.10;;;9.37;;
20721;SDS011;10522;52.198;9.890;2023-05-08T12:09:56;10.20;;;9.20;;
20721;SDS011;10522;52.198;9.890;2023-05-08T12:12:36;11.23;;;8.70;;
20721;SDS011;10522;52.198;9.890;2023-05-08T12:15:09;9.90;;;8.60;;
20721;SDS011;10522;52.198;9.890;2023-05-08T12:17:36;10.13;;;8.40;;
20721;SDS011;10522;52.198;9.890;2023-05-08T12:22:39;13.50;;;8.10;;
20721;SDS011;10522;52.198;9.890;2023-05-08T12:25:05;10.37;;;8.27;;
20721;SDS011;10522;52.198;9.890;2023-05-08T12:27:33;9.20;;;7.80;;
20721;SDS011;10522;52.198;9.890;2023-05-08T12:30:05;10.00;;;8.37;;
20721;SDS011;10522;52.198;9.890;2023-05-08T12:32:33;11.43;;;9.10;;
20721;SDS011;10522;52.198;9.890;2023-05-08T12:35:00;8.77;;;7.87;;
20721;SDS011;10522;52.198;9.890;2023-05-08T12:37:27;10.37;;;8.67;;
20721;SDS011;10522;52.198;9.890;2023-05-08T12:39:53;9.40;;;7.40;;
20721;SDS011;10522;52.198;9.890;2023-05-08T12:42:19;10.27;;;7.83;;
20721;SDS011;10522;52.198;9.890;2023-05-08T12:44:49;8.80;;;7.07;;
20721;SDS011;10522;52.198;9.890;2023-05-08T12:47:15;9.10;;;8.03;;
20721;SDS011;10522;52.198;9.890;2023-05-08T12:49:43;10.17;;;8.70;;
20721;SDS011;10522;52.198;9.890;2023-05-08T12:52:22;8.43;;;7.47;;
20721;SDS011;10522;52.198;9.890;2023-05-08T12:54:47;10.67;;;8.50;;
20721;SDS011;10522;52.198;9.890;2023-05-08T12:57:14;9.57;;;7.33;;
20721;SDS011;10522;52.198;9.890;2023-05-08T12:59:42;8.20;;;7.40;;
20721;SDS011;10522;52.198;9.890;2023-05-08T13:02:18;8.07;;;6.80;;
20721;SDS011;10522;52.198;9.890;2023-05-08T13:04:47;8.10;;;7.30;;
20721;SDS011;10522;52.198;9.890;2023-05-08T13:07:17;8.03;;;6.93;;
20721;SDS011;10522;52.198;9.890;2023-05-08T13:09:57;8.13;;;6.93;;
20721;SDS011;10522;52.198;9.890;2023-05-08T13:12:27;8.03;;;7.23;;
20721;SDS011;10522;52.198;9.890;2023-05-08T13:14:53;11.63;;;8.50;;
20721;SDS011;10522;52.198;9.890;2023-05-08T13:17:18;8.13;;;7.13;;
20721;SDS011;10522;52.198;9.890;2023-05-08T13:19:44;10.10;;;7.80;;
20721;SDS011;10522;52.198;9.890;2023-05-08T13:22:10;10.37;;;7.57;;
20721;SDS011;10522;52.198;9.890;2023-05-08T13:24:36;15.67;;;8.37;;
20721;SDS011;10522;52.198;9.890;2023-05-08T13:27:01;13.10;;;7.67;;
20721;SDS011;10522;52.198;9.890;2023-05-08T13:29:28;12.83;;;7.33;;
20721;SDS011;10522;52.198;9.890;2023-05-08T13:31:53;9.50;;;7.43;;
20721;SDS011;10522;52.198;9.890;2023-05-08T13:34:29;14.73;;;8.47;;
20721;SDS011;10522;52.198;9.890;2023-05-08T13:37:02;12.97;;;8.17;;
20721;SDS011;10522;52.198;9.890;2023-05-08T13:39:28;18.73;;;7.93;;
20721;SDS011;10522;52.198;9.890;2023-05-08T13:42:12;9.63;;;7.50;;
20721;SDS011;10522;52.198;9.890;2023-05-08T13:44:38;11.37;;;6.80;;
20721;SDS011;10522;52.198;9.890;2023-05-08T13:47:03;7.50;;;6.73;;
20721;SDS011;10522;52.198;9.890;2023-05-08T13:49:30;7.03;;;6.33;;
20721;SDS011;10522;52.198;9.890;2023-05-08T13:51:56;9.37;;;7.27;;
20721;SDS011;10522;52.198;9.890;2023-05-08T13:54:21;11.00;;;7.23;;
20721;SDS011;10522;52.198;9.890;2023-05-08T13:56:47;10.77;;;7.20;;
20721;SDS011;10522;52.198;9.890;2023-05-08T13:59:13;8.43;;;6.73;;
20721;SDS011;10522;52.198;9.890;2023-05-08T14:01:41;7.37;;;6.47;;
20721;SDS011;10522;52.198;9.890;2023-05-08T14:04:11;8.37;;;6.93;;
20721;SDS011;10522;52.198;9.890;2023-05-08T14:06:37;8.23;;;7.37;;
20721;SDS011;10522;52.198;9.890;2023-05-08T14:09:03;8.37;;;7.57;;
20721;SDS011;10522;52.198;9.890;2023-05-08T14:11:29;9.93;;;7.30;;
20721;SDS011;10522;52.198;9.890;2023-05-08T14:13:55;9.43;;;7.03;;
20721;SDS011;10522;52.198;9.890;2023-05-08T14:16:20;7.77;;;6.97;;
20721;SDS011;10522;52.198;9.890;2023-05-08T14:18:46;10.17;;;6.80;;
20721;SDS011;10522;52.198;9.890;2023-05-08T14:21:17;10.03;;;7.60;;
20721;SDS011;10522;52.198;9.890;2023-05-08T14:23:42;9.27;;;6.90;;
20721;SDS011;10522;52.198;9.890;2023-05-08T14:26:09;7.70;;;6.90;;
20721;SDS011;10522;52.198;9.890;2023-05-08T14:28:34;9.20;;;6.73;;
20721;SDS011;10522;52.198;9.890;2023-05-08T14:31:00;10.40;;;6.60;;
20721;SDS011;10522;52.198;9.890;2023-05-08T14:33:26;9.83;;;6.90;;
20721;SDS011;10522;52.198;9.890;2023-05-08T14:35:51;8.80;;;6.17;;
20721;SDS011;10522;52.198;9.890;2023-05-08T14:38:17;11.87;;;7.83;;
20721;SDS011;10522;52.198;9.890;2023-05-08T14:40:42;8.37;;;6.83;;
20721;SDS011;10522;52.198;9.890;2023-05-08T14:43:08;11.40;;;7.30;;
20721;SDS011;10522;52.198;9.890;2023-05-08T14:45:34;11.50;;;7.10;;
20721;SDS011;10522;52.198;9.890;2023-05-08T14:47:59;15.93;;;8.00;;
20721;SDS011;10522;52.198;9.890;2023-05-08T14:50:25;10.60;;;6.50;;
20721;SDS011;10522;52.198;9.890;2023-05-08T14:52:52;11.43;;;6.63;;
20721;SDS011;10522;52.198;9.890;2023-05-08T14:55:18;8.73;;;6.90;;
20721;SDS011;10522;52.198;9.890;2023-05-08T14:57:47;12.60;;;6.80;;
20721;SDS011;10522;52.198;9.890;2023-05-08T15:00:14;15.63;;;7.43;;
20721;SDS011;10522;52.198;9.890;2023-05-08T15:02:40;8.50;;;6.10;;
20721;SDS011;10522;52.198;9.890;2023-05-08T15:05:06;6.83;;;6.13;;
20721;SDS011;10522;52.198;9.890;2023-05-08T15:07:32;10.17;;;6.07;;
20721;SDS011;10522;52.198;9.890;2023-05-08T15:09:58;11.23;;;6.00;;
20721;SDS011;10522;52.198;9.890;2023-05-08T15:12:24;7.17;;;6.03;;
20721;SDS011;10522;52.198;9.890;2023-05-08T15:14:50;7.10;;;5.27;;
20721;SDS011;10522;52.198;9.890;2023-05-08T15:17:15;5.87;;;5.37;;
20721;SDS011;10522;52.198;9.890;2023-05-08T15:19:41;6.63;;;5.20;;
20721;SDS011;10522;52.198;9.890;2023-05-08T15:22:07;6.83;;;6.00;;
20721;SDS011;10522;52.198;9.890;2023-05-08T15:24:33;9.17;;;6.03;;
20721;SDS011;10522;52.198;9.890;2023-05-08T15:26:58;6.10;;;5.50;;
20721;SDS011;10522;52.198;9.890;2023-05-08T15:29:24;8.00;;;5.10;;
20721;SDS011;10522;52.198;9.890;2023-05-08T15:31:50;7.13;;;5.10;;
20721;SDS011;10522;52.198;9.890;2023-05-08T15:34:18;5.67;;;5.10;;
20721;SDS011;10522;52.198;9.890;2023-05-08T15:36:48;5.83;;;4.80;;